createdAt,value
2023-04-03T04:51:13.950Z,96.50
2023-04-03T07:12:25.626Z,70.20
2023-04-03T07:14:53.129Z,56.60
2023-04-03T07:32:04.642Z,57.30
2023-04-03T07:46:49.482Z,57.70
2023-04-03T08:06:44.862Z,51.30
2023-04-03T08:14:08.763Z,50.90
2023-04-03T08:36:30.718Z,39.30
2023-04-03T08:41:50.697Z,34.50
2023-04-03T08:44:41.562Z,40.30
2023-04-03T08:47:41.829Z,33.00
2023-04-03T08:50:14.840Z,32.20
2023-04-03T08:52:49.735Z,43.00
2023-04-03T08:55:41.863Z,30.00
2023-04-03T08:58:17.917Z,33.10
2023-04-03T09:00:59.541Z,30.70
2023-04-03T09:06:12.362Z,29.80
2023-04-03T09:08:45.806Z,30.00
2023-04-03T09:11:24.803Z,29.20
2023-04-03T09:13:58.343Z,28.00
2023-04-03T09:16:43.192Z,35.40
2023-04-03T09:21:42.494Z,35.20
2023-04-03T09:24:12.586Z,30.50
2023-04-03T09:27:05.413Z,27.80
2023-04-03T09:32:13.069Z,26.00
2023-04-03T09:34:42.914Z,29.10
2023-04-03T09:39:55.371Z,27.70
2023-04-03T09:42:25.046Z,30.80
2023-04-03T09:44:59.650Z,27.70
2023-04-03T09:47:36.379Z,37.00
2023-04-03T09:50:15.385Z,24.40
2023-04-03T09:52:44.001Z,26.90
2023-04-03T09:55:27.829Z,24.10
2023-04-03T09:57:57.829Z,26.20
2023-04-03T10:00:40.819Z,24.10
2023-04-03T10:03:29.576Z,26.40
2023-04-03T10:08:34.821Z,24.50
2023-04-03T10:11:17.965Z,37.90
2023-04-03T10:13:58.430Z,24.80
2023-04-03T10:17:02.073Z,23.20
2023-04-03T10:19:59.541Z,24.20
2023-04-03T10:22:32.250Z,24.30
2023-04-03T10:25:10.234Z,24.00
2023-04-03T10:28:01.557Z,25.50
2023-04-03T10:30:51.281Z,24.80
2023-04-03T10:33:33.271Z,24.70
2023-04-03T10:36:14.401Z,26.70
2023-04-03T10:39:04.689Z,26.50
2023-04-03T10:42:18.622Z,24.70
2023-04-03T10:45:09.519Z,25.40
2023-04-03T10:47:51.272Z,23.90
2023-04-03T10:50:51.710Z,23.80
2023-04-03T10:58:27.904Z,22.30
2023-04-03T11:00:58.046Z,23.90
2023-04-03T11:03:36.858Z,21.70
2023-04-03T11:06:08.382Z,24.20
2023-04-03T11:11:12.599Z,21.50
2023-04-03T11:14:04.116Z,22.70
2023-04-03T11:16:43.532Z,25.30
2023-04-03T11:19:25.547Z,23.40
2023-04-03T11:21:58.203Z,23.90
2023-04-03T11:24:32.427Z,21.90
2023-04-03T11:27:01.320Z,22.90
2023-04-03T11:29:40.763Z,23.80
2023-04-03T11:32:35.482Z,23.10
2023-04-03T11:35:06.217Z,24.70
2023-04-03T11:37:39.280Z,23.70
2023-04-03T11:40:24.144Z,21.60
2023-04-03T11:43:05.004Z,22.90
2023-04-03T11:45:39.455Z,22.70
2023-04-03T11:48:25.236Z,24.80
2023-04-03T11:53:30.758Z,22.40
2023-04-03T11:56:03.682Z,23.30
2023-04-03T11:58:33.199Z,24.80
2023-04-03T12:06:14.710Z,21.80
2023-04-03T12:13:51.354Z,20.90
2023-04-03T12:16:27.271Z,21.40
2023-04-03T12:21:23.926Z,22.20
2023-04-03T12:24:26.550Z,20.90
2023-04-03T12:27:20.735Z,21.50
2023-04-03T12:30:17.953Z,23.50
2023-04-03T12:33:26.508Z,21.20
2023-04-03T12:36:19.446Z,23.00
2023-04-03T12:39:14.516Z,20.60
2023-04-03T12:41:51.157Z,21.10
2023-04-03T12:45:07.465Z,20.60
2023-04-03T12:47:41.006Z,21.50
2023-04-03T12:50:30.991Z,21.90
2023-04-03T12:53:03.076Z,23.30
2023-04-03T13:00:33.649Z,21.50
2023-04-03T13:03:04.490Z,23.20
2023-04-03T13:05:36.649Z,23.20
2023-04-03T13:08:09.735Z,23.60
2023-04-03T13:10:51.958Z,23.80
2023-04-03T13:15:53.894Z,25.70
2023-04-03T13:18:33.776Z,26.20
2023-04-03T13:21:16.850Z,23.60
2023-04-03T13:23:53.040Z,25.60
2023-04-03T13:26:26.996Z,25.60
2023-04-03T13:28:57.671Z,25.90
2023-04-03T13:31:28.790Z,26.70
2023-04-03T13:34:11.947Z,26.00
2023-04-03T13:36:48.951Z,22.90
2023-04-03T13:41:46.235Z,25.70
2023-04-03T13:44:37.104Z,23.80
2023-04-03T13:47:23.302Z,25.20
